Time;durP1;ratioP1;P1;durP2;ratioP2;P2;SDS_P1;SDS_P2;PMS_P1;PMS_P2;Temp;Humidity;BMP_temperature;BMP_pressure;BME280_temperature;BME280_humidity;BME280_pressure;Samples;Min_cycle;Max_cycle;Signal;HPM_P1;HPM_P2
2022/09/26 00:01:30;;;;;;;6.30;2.30;;;;;;;9.48;94.71;100181.42;108105;1276;71106;-76
2022/09/26 00:04:02;;;;;;;7.40;2.40;;;;;;;9.48;94.59;100179.11;108073;1274;72898;-76
2022/09/26 00:06:29;;;;;;;5.60;2.40;;;;;;;9.48;94.28;100174.23;108010;1277;60383;-76
2022/09/26 00:08:56;;;;;;;6.90;2.30;;;;;;;9.47;94.04;100172.41;108195;1274;60287;-77
2022/09/26 00:11:29;;;;;;;6.10;2.30;;;;;;;9.45;94.08;100166.34;108134;1274;75869;-76
2022/09/26 00:13:59;;;;;;;6.30;2.40;;;;;;;9.42;94.13;100162.36;108174;1274;71655;-76
2022/09/26 00:16:26;;;;;;;7.60;2.20;;;;;;;9.41;94.23;100157.94;108072;1275;72968;-76
2022/09/26 00:18:55;;;;;;;5.80;2.40;;;;;;;9.39;94.44;100151.44;108068;1274;60554;-76
2022/09/26 00:21:23;;;;;;;6.50;2.20;;;;;;;9.38;94.22;100146.80;108139;1277;62131;-77
2022/09/26 00:23:50;;;;;;;4.00;2.20;;;;;;;9.37;94.28;100139.77;108146;1274;74552;-76
2022/09/26 00:26:18;;;;;;;6.20;2.50;;;;;;;9.38;94.28;100133.18;108193;1274;72332;-76
2022/09/26 00:28:45;;;;;;;5.60;2.00;;;;;;;9.41;94.52;100131.14;108088;1275;73875;-76
2022/09/26 00:31:15;;;;;;;3.40;1.90;;;;;;;9.42;94.10;100129.88;108130;1274;61131;-76
2022/09/26 00:33:42;;;;;;;6.10;2.10;;;;;;;9.46;94.06;100124.02;108174;1274;60456;-76
2022/09/26 00:36:09;;;;;;;5.60;2.20;;;;;;;9.48;93.98;100123.70;108160;1274;75774;-76
2022/09/26 00:38:36;;;;;;;4.30;1.80;;;;;;;9.50;93.84;100122.15;108188;1274;70782;-76
2022/09/26 00:41:06;;;;;;;4.60;2.00;;;;;;;9.50;93.70;100117.47;108089;1274;73740;-76
2022/09/26 00:43:40;;;;;;;4.40;2.10;;;;;;;9.49;93.69;100112.61;108137;1274;62335;-76
2022/09/26 00:46:34;;;;;;;5.30;2.00;;;;;;;9.50;93.69;100108.30;108127;1274;60921;-76
2022/09/26 00:49:24;;;;;;;6.40;2.20;;;;;;;9.52;93.88;100100.47;108144;1274;74682;-76
2022/09/26 00:52:07;;;;;;;4.70;1.80;;;;;;;9.54;93.84;100095.12;108056;1276;71739;-77
2022/09/26 00:54:36;;;;;;;5.90;2.10;;;;;;;9.55;93.77;100092.13;108097;1274;73152;-76
2022/09/26 00:57:09;;;;;;;5.60;1.90;;;;;;;9.55;93.65;100089.67;108118;1274;60649;-77
2022/09/26 00:59:40;;;;;;;6.50;2.40;;;;;;;9.55;93.80;100087.16;108176;1274;59290;-76
2022/09/26 01:02:08;;;;;;;6.20;2.10;;;;;;;9.55;93.86;100083.93;108056;1276;76095;-77
2022/09/26 01:04:38;;;;;;;5.80;1.90;;;;;;;9.56;93.56;100081.86;108037;1274;70032;-76
2022/09/26 01:07:11;;;;;;;5.00;2.20;;;;;;;9.55;93.68;100082.13;108166;1274;72583;-76
2022/09/26 01:09:38;;;;;;;6.70;2.00;;;;;;;9.56;93.44;100073.65;108115;1274;61215;-76
2022/09/26 01:12:07;;;;;;;4.70;1.80;;;;;;;9.58;93.36;100063.94;108072;1274;60820;-76
2022/09/26 01:14:36;;;;;;;5.30;2.00;;;;;;;9.60;93.33;100063.67;108030;1274;75768;-76
2022/09/26 01:17:03;;;;;;;4.20;1.80;;;;;;;9.61;93.40;100061.81;108096;1274;72552;-76
2022/09/26 01:20:04;;;;;;;7.50;2.10;;;;;;;9.63;93.29;100059.67;108147;1274;72399;-76
2022/09/26 01:23:01;;;;;;;5.20;1.70;;;;;;;9.64;93.13;100058.30;107993;1276;61397;-76
2022/09/26 01:25:49;;;;;;;4.40;1.70;;;;;;;9.64;93.21;100053.63;108091;1274;62359;-76
2022/09/26 01:28:30;;;;;;;5.50;1.80;;;;;;;9.65;93.08;100054.31;108134;1274;74883;-76
2022/09/26 01:31:10;;;;;;;4.10;1.90;;;;;;;9.66;92.97;100058.09;108206;1274;69788;-76
2022/09/26 01:34:06;;;;;;;5.90;2.10;;;;;;;9.65;92.97;100054.98;108036;1276;73467;-76
2022/09/26 01:36:39;;;;;;;6.50;1.90;;;;;;;9.65;93.09;100047.37;108175;1274;63631;-76
2022/09/26 01:39:23;;;;;;;5.60;2.10;;;;;;;9.66;93.03;100043.77;108188;1274;61067;-76
2022/09/26 01:42:15;;;;;;;6.10;1.90;;;;;;;9.66;92.77;100040.77;108145;1274;76188;-76
2022/09/26 01:44:57;;;;;;;4.70;1.80;;;;;;;9.67;92.85;100037.81;108142;1274;72717;-76
2022/09/26 01:47:36;;;;;;;5.90;2.00;;;;;;;9.67;92.84;100033.77;108177;1274;72704;-77
2022/09/26 01:50:15;;;;;;;5.20;1.70;;;;;;;9.66;92.93;100035.43;108136;1274;63079;-76
2022/09/26 01:52:52;;;;;;;5.00;2.00;;;;;;;9.65;92.89;100029.05;108032;1276;61274;-77
2022/09/26 01:55:36;;;;;;;5.80;2.00;;;;;;;9.65;92.85;100029.91;108019;1276;75944;-76
2022/09/26 01:58:13;;;;;;;6.00;2.00;;;;;;;9.66;92.97;100027.36;108109;1274;72682;-76
2022/09/26 02:00:42;;;;;;;3.70;2.10;;;;;;;9.66;92.62;100025.85;108159;1274;72441;-75
2022/09/26 02:03:14;;;;;;;5.60;2.10;;;;;;;9.67;92.52;100022.95;108043;1275;62103;-75
2022/09/26 02:06:09;;;;;;;6.70;2.00;;;;;;;9.68;92.53;100022.23;108029;1276;60589;-76
2022/09/26 02:08:40;;;;;;;5.70;1.90;;;;;;;9.70;92.12;100020.48;108153;1274;75092;-76
2022/09/26 02:11:17;;;;;;;4.30;2.10;;;;;;;9.70;92.17;100017.84;108149;1274;71398;-76
2022/09/26 02:14:01;;;;;;;5.80;2.00;;;;;;;9.70;91.98;100012.52;108039;1275;74215;-76
2022/09/26 02:16:36;;;;;;;5.90;2.10;;;;;;;9.70;91.76;100006.15;108134;1274;61951;-76
2022/09/26 02:19:12;;;;;;;6.60;2.10;;;;;;;9.70;91.66;99997.67;108180;1274;61528;-76
2022/09/26 02:21:41;;;;;;;5.80;1.90;;;;;;;9.71;91.37;99997.23;108134;1274;76162;-77
2022/09/26 02:24:08;;;;;;;5.60;1.80;;;;;;;9.70;91.32;99997.47;108091;1274;71775;-77
2022/09/26 02:26:34;;;;;;;4.60;1.80;;;;;;;9.71;91.35;99990.15;108096;1274;74347;-76
2022/09/26 02:29:01;;;;;;;6.00;2.00;;;;;;;9.70;91.17;99985.52;108170;1274;63572;-77
2022/09/26 02:31:34;;;;;;;7.50;1.90;;;;;;;9.70;90.81;99983.01;107873;1274;61533;-77
2022/09/26 02:34:01;;;;;;;5.80;1.60;;;;;;;9.70;90.23;99980.85;108131;1274;76397;-77
2022/09/26 02:36:33;;;;;;;4.80;1.80;;;;;;;9.73;89.98;99979.81;108127;1277;70745;-77
2022/09/26 02:39:00;;;;;;;4.30;2.00;;;;;;;9.75;89.89;99973.23;108176;1274;71514;-77
2022/09/26 02:41:48;;;;;;;7.30;2.00;;;;;;;9.76;90.08;99972.23;108100;1274;62296;-77
2022/09/26 02:44:50;;;;;;;5.70;2.00;;;;;;;9.77;89.91;99966.48;108192;1274;60095;-77
2022/09/26 02:47:35;;;;;;;4.90;1.90;;;;;;;9.75;90.06;99958.33;107874;1274;76195;-77
2022/09/26 02:50:26;;;;;;;5.00;1.80;;;;;;;9.74;90.17;99956.90;108175;1274;71216;-77
2022/09/26 02:53:10;;;;;;;6.00;2.10;;;;;;;9.74;89.91;99953.23;108155;1274;74003;-77
2022/09/26 02:55:50;;;;;;;3.20;1.90;;;;;;;9.75;89.94;99948.38;108183;1274;62934;-76
2022/09/26 02:58:46;;;;;;;4.20;1.80;;;;;;;9.73;89.97;99945.08;108195;1274;60520;-76
2022/09/26 03:01:39;;;;;;;4.00;1.60;;;;;;;9.70;89.83;99940.27;107994;1276;75944;-76
2022/09/26 03:04:28;;;;;;;5.00;1.80;;;;;;;9.69;89.79;99938.50;108164;1274;71307;-76
2022/09/26 03:06:59;;;;;;;4.20;1.90;;;;;;;9.69;89.69;99930.77;107992;1276;72916;-76
2022/09/26 03:09:29;;;;;;;4.70;1.90;;;;;;;9.69;89.80;99928.94;108055;1274;62099;-76
2022/09/26 03:11:58;;;;;;;4.20;1.90;;;;;;;9.68;89.66;99924.24;108112;1275;59867;-76
2022/09/26 03:14:28;;;;;;;7.00;1.90;;;;;;;9.68;89.81;99922.02;108089;1276;75209;-76
2022/09/26 03:16:56;;;;;;;4.80;1.90;;;;;;;9.68;89.91;99916.57;108189;1274;71304;-76
2022/09/26 03:19:29;;;;;;;6.50;1.90;;;;;;;9.68;89.86;99917.19;108093;1274;71763;-76
2022/09/26 03:21:58;;;;;;;4.00;1.70;;;;;;;9.69;89.63;99909.16;108108;1275;61489;-76
2022/09/26 03:24:25;;;;;;;5.00;1.80;;;;;;;9.69;89.61;99908.48;108140;1275;61556;-76
2022/09/26 03:26:54;;;;;;;4.20;1.80;;;;;;;9.69;89.65;99903.72;107965;1274;75716;-76
2022/09/26 03:29:21;;;;;;;4.40;1.70;;;;;;;9.68;89.54;99902.39;108221;1274;71179;-76
2022/09/26 03:31:49;;;;;;;4.10;1.80;;;;;;;9.69;89.57;99897.55;107995;1274;72813;-76
2022/09/26 03:34:16;;;;;;;4.50;1.70;;;;;;;9.69;89.58;99896.95;108089;1277;62112;-76
2022/09/26 03:36:44;;;;;;;4.30;1.70;;;;;;;9.70;89.55;99894.22;108104;1274;60751;-76
2022/09/26 03:39:11;;;;;;;5.20;1.70;;;;;;;9.69;89.46;99891.45;107927;1276;76016;-76
2022/09/26 03:41:39;;;;;;;4.10;1.60;;;;;;;9.69;89.68;99892.35;108171;1274;72076;-76
2022/09/26 03:44:06;;;;;;;4.40;1.50;;;;;;;9.70;89.51;99889.05;108105;1274;73281;-76
2022/09/26 03:46:33;;;;;;;4.60;1.70;;;;;;;9.72;89.60;99886.21;107977;1274;63612;-76
2022/09/26 03:49:05;;;;;;;4.30;1.60;;;;;;;9.72;89.27;99882.27;108239;1274;60652;-76
2022/09/26 03:51:32;;;;;;;4.60;1.80;;;;;;;9.72;89.40;99881.73;107982;1274;74243;-76
2022/09/26 03:53:59;;;;;;;3.60;1.70;;;;;;;9.76;89.34;99873.21;108157;1276;70321;-76
2022/09/26 03:56:26;;;;;;;3.80;1.70;;;;;;;9.75;89.28;99871.70;108275;1273;71880;-76
2022/09/26 03:58:53;;;;;;;4.20;1.60;;;;;;;9.77;89.26;99867.80;108252;1274;63075;-76
2022/09/26 04:01:21;;;;;;;4.30;1.60;;;;;;;9.77;89.07;99859.93;107969;1277;60614;-77
2022/09/26 04:03:49;;;;;;;5.50;2.00;;;;;;;9.79;89.19;99860.61;108006;1274;76524;-76
2022/09/26 04:06:18;;;;;;;5.10;2.00;;;;;;;9.80;89.04;99855.52;108192;1272;70414;-76
2022/09/26 04:08:48;;;;;;;5.10;1.60;;;;;;;9.81;88.84;99853.66;108012;1276;71720;-76
2022/09/26 04:11:18;;;;;;;5.80;1.60;;;;;;;9.82;88.80;99847.74;108161;1274;62106;-76
2022/09/26 04:13:45;;;;;;;6.00;1.70;;;;;;;9.82;88.69;99844.87;108263;1273;61523;-76
2022/09/26 04:16:19;;;;;;;5.10;1.70;;;;;;;9.84;88.85;99840.84;108008;1277;74687;-76
2022/09/26 04:18:46;;;;;;;4.60;1.60;;;;;;;9.84;88.73;99836.45;108237;1274;71658;-76
2022/09/26 04:21:13;;;;;;;5.40;1.80;;;;;;;9.83;88.80;99832.11;108148;1273;72620;-76
2022/09/26 04:23:42;;;;;;;4.40;1.70;;;;;;;9.82;88.71;99825.91;108028;1274;61660;-76
2022/09/26 04:26:14;;;;;;;8.30;1.90;;;;;;;9.79;88.66;99826.98;108244;1274;61453;-76
2022/09/26 04:28:49;;;;;;;4.60;2.00;;;;;;;9.78;88.85;99821.93;108242;1274;76309;-76
2022/09/26 04:31:17;;;;;;;7.60;2.00;;;;;;;9.76;88.88;99819.22;108244;1274;72580;-76
2022/09/26 04:33:44;;;;;;;4.10;1.70;;;;;;;9.74;88.83;99816.40;108224;1273;73266;-77
2022/09/26 04:36:12;;;;;;;6.80;1.90;;;;;;;9.74;88.87;99816.73;108223;1274;61958;-77
2022/09/26 04:38:39;;;;;;;4.20;1.70;;;;;;;9.75;88.65;99812.41;108208;1274;63373;-77
2022/09/26 04:41:09;;;;;;;5.00;2.20;;;;;;;9.77;88.89;99808.27;107983;1274;75601;-77
2022/09/26 04:43:36;;;;;;;5.90;2.20;;;;;;;9.78;88.57;99805.66;108179;1274;71670;-77
2022/09/26 04:46:12;;;;;;;4.90;1.90;;;;;;;9.79;88.57;99804.83;108041;1274;74791;-77
2022/09/26 04:48:47;;;;;;;5.80;1.70;;;;;;;9.82;88.79;99801.67;108134;1274;61353;-77
2022/09/26 04:51:15;;;;;;;4.70;2.10;;;;;;;9.82;88.55;99799.54;108097;1274;60320;-76
2022/09/26 04:53:42;;;;;;;6.60;2.10;;;;;;;9.83;88.82;99797.48;108287;1274;75410;-76
2022/09/26 04:56:12;;;;;;;4.60;2.10;;;;;;;9.84;88.60;99795.90;108245;1273;73127;-76
2022/09/26 04:58:40;;;;;;;6.20;2.00;;;;;;;9.85;88.69;99795.45;108177;1274;72704;-77
2022/09/26 05:01:10;;;;;;;6.30;2.40;;;;;;;9.86;88.68;99793.05;108178;1274;62060;-76
2022/09/26 05:03:37;;;;;;;4.90;2.30;;;;;;;9.87;88.73;99787.96;108221;1274;61819;-77
2022/09/26 05:06:08;;;;;;;4.70;2.60;;;;;;;9.89;88.28;99785.10;108211;1274;76057;-78
2022/09/26 05:08:36;;;;;;;5.90;2.80;;;;;;;9.89;88.67;99779.23;108263;1274;72930;-74
2022/09/26 05:11:03;;;;;;;6.50;2.70;;;;;;;9.91;88.29;99777.69;108156;1274;73069;-75
2022/09/26 05:13:32;;;;;;;5.70;2.60;;;;;;;9.93;88.36;99771.31;108257;1274;62301;-74
2022/09/26 05:16:00;;;;;;;4.90;3.00;;;;;;;9.95;88.10;99766.80;108194;1273;60473;-74
2022/09/26 05:18:28;;;;;;;5.00;2.60;;;;;;;9.96;88.09;99759.38;108177;1274;74764;-74
2022/09/26 05:20:56;;;;;;;7.50;2.80;;;;;;;9.98;87.94;99753.45;108209;1273;72177;-74
2022/09/26 05:26:35;;;;;;;6.10;2.70;;;;;;;10.00;87.71;99753.45;108225;1274;62264;-74
2022/09/26 05:29:03;;;;;;;5.30;2.80;;;;;;;10.02;87.49;99749.19;108191;1274;60279;-74
2022/09/26 05:31:36;;;;;;;5.50;3.10;;;;;;;10.03;87.30;99747.12;108237;1273;75680;-75
2022/09/26 05:34:09;;;;;;;4.80;2.70;;;;;;;10.03;87.24;99747.61;108173;1274;72326;-75
2022/09/26 05:36:41;;;;;;;5.20;2.60;;;;;;;10.04;87.09;99752.91;108197;1274;72728;-75
2022/09/26 05:40:55;;;;;;;5.40;2.50;;;;;;;10.05;86.95;99753.52;108275;1271;62535;-75
2022/09/26 05:41:57;;;;;;;5.90;2.70;;;;;;;10.07;86.72;99753.58;108248;1274;60366;-75
2022/09/26 05:44:23;;;;;;;6.20;2.70;;;;;;;10.09;86.54;99755.46;108288;1274;73728;-75
2022/09/26 05:46:51;;;;;;;4.80;2.80;;;;;;;10.12;86.17;99754.59;108237;1273;71605;-74
2022/09/26 05:49:17;;;;;;;5.50;2.60;;;;;;;10.14;86.08;99748.29;108252;1274;71084;-74
2022/09/26 05:51:45;;;;;;;7.20;2.60;;;;;;;10.16;86.03;99745.40;108211;1273;63268;-74
2022/09/26 05:54:12;;;;;;;4.70;2.40;;;;;;;10.17;85.86;99743.13;108197;1274;61777;-74
2022/09/26 05:56:39;;;;;;;5.60;2.40;;;;;;;10.18;85.68;99743.63;108214;1274;74681;-74
2022/09/26 05:59:07;;;;;;;5.90;2.40;;;;;;;10.18;85.45;99739.66;108239;1274;73057;-74
2022/09/26 06:01:33;;;;;;;6.40;2.40;;;;;;;10.19;85.47;99740.21;108224;1274;71892;-74
2022/09/26 06:04:01;;;;;;;4.60;2.20;;;;;;;10.21;85.38;99741.80;108267;1274;63340;-74
2022/09/26 06:06:29;;;;;;;7.50;2.30;;;;;;;10.22;85.18;99738.34;108278;1273;60668;-73
2022/09/26 06:08:56;;;;;;;5.80;2.50;;;;;;;10.24;85.20;99734.52;108156;1276;74702;-74
2022/09/26 06:11:29;;;;;;;4.40;2.30;;;;;;;10.28;85.26;99735.27;108298;1274;71369;-74
2022/09/26 06:13:59;;;;;;;5.10;2.20;;;;;;;10.31;84.94;99736.70;108344;1273;74036;-74
2022/09/26 06:16:27;;;;;;;5.00;2.20;;;;;;;10.39;85.04;99730.45;108255;1274;62200;-74
2022/09/26 06:18:57;;;;;;;3.90;2.00;;;;;;;10.49;84.80;99723.36;108336;1274;61689;-74
2022/09/26 06:21:24;;;;;;;5.10;2.20;;;;;;;10.56;84.41;99721.55;108249;1273;75706;-74
2022/09/26 06:23:51;;;;;;;4.40;2.40;;;;;;;10.65;84.15;99718.73;108274;1274;72381;-73
2022/09/26 06:26:27;;;;;;;5.00;2.00;;;;;;;10.71;83.70;99715.06;108362;1274;72628;-73
2022/09/26 06:28:56;;;;;;;5.10;2.60;;;;;;;10.76;83.32;99713.70;108354;1273;62226;-73
2022/09/26 06:31:24;;;;;;;3.90;2.10;;;;;;;10.80;83.20;99708.20;108290;1274;61918;-73
2022/09/26 06:33:54;;;;;;;5.30;1.80;;;;;;;10.82;82.77;99709.19;108343;1272;75776;-73
2022/09/26 06:36:23;;;;;;;3.90;1.90;;;;;;;10.84;82.62;99704.00;108344;1274;71280;-73
2022/09/26 06:38:50;;;;;;;4.60;1.80;;;;;;;10.88;82.53;99701.94;108308;1274;73495;-73
2022/09/26 06:41:17;;;;;;;5.00;2.20;;;;;;;10.89;82.13;99698.02;108340;1274;61871;-73
2022/09/26 06:43:44;;;;;;;4.10;1.80;;;;;;;10.94;82.02;99695.45;108123;1274;60125;-73
2022/09/26 06:46:13;;;;;;;4.60;1.80;;;;;;;10.99;81.94;99686.19;108339;1274;75049;-73
2022/09/26 06:48:41;;;;;;;3.60;1.60;;;;;;;11.06;81.78;99678.96;108160;1274;71117;-73
2022/09/26 06:51:08;;;;;;;4.00;1.80;;;;;;;11.14;81.51;99681.13;108215;1274;72775;-73
2022/09/26 06:53:34;;;;;;;4.30;1.90;;;;;;;11.18;80.68;99681.30;108339;1274;61964;-73
2022/09/26 06:56:01;;;;;;;5.70;1.80;;;;;;;11.20;80.55;99676.73;108274;1274;60030;-73
2022/09/26 06:58:29;;;;;;;4.80;2.10;;;;;;;11.27;80.75;99674.84;108243;1275;76367;-73
2022/09/26 07:00:58;;;;;;;4.40;1.90;;;;;;;11.32;80.68;99677.08;108354;1274;71993;-73
2022/09/26 07:03:25;;;;;;;5.00;2.20;;;;;;;11.40;80.53;99669.53;108251;1274;74315;-73
2022/09/26 07:05:55;;;;;;;3.20;2.00;;;;;;;11.43;79.87;99673.70;108299;1273;63618;-73
2022/09/26 07:08:23;;;;;;;5.00;2.60;;;;;;;11.52;79.59;99670.38;108351;1273;60988;-73
2022/09/26 07:11:10;;;;;;;4.70;2.10;;;;;;;11.66;79.24;99672.29;108294;1274;76928;-73
2022/09/26 07:13:59;;;;;;;4.80;2.20;;;;;;;11.76;78.44;99666.95;108356;1274;71875;-73
2022/09/26 07:16:25;;;;;;;4.30;2.10;;;;;;;11.89;78.25;99668.57;108210;1277;72632;-73
2022/09/26 07:18:53;;;;;;;6.00;1.90;;;;;;;11.99;77.34;99663.48;108318;1274;61960;-73
2022/09/26 07:21:20;;;;;;;4.80;2.20;;;;;;;12.11;76.73;99662.35;108289;1274;61136;-73
2022/09/26 07:23:47;;;;;;;6.60;2.50;;;;;;;12.23;76.34;99659.52;108374;1274;73789;-73
2022/09/26 07:26:17;;;;;;;4.40;2.00;;;;;;;12.37;76.22;99658.55;108207;1274;71438;-73
2022/09/26 07:28:44;;;;;;;4.50;2.10;;;;;;;12.48;75.52;99663.08;108282;1274;72799;-72
2022/09/26 07:31:14;;;;;;;5.30;2.50;;;;;;;12.56;74.96;99662.14;108321;1274;64756;-73
2022/09/26 07:33:41;;;;;;;6.00;2.30;;;;;;;12.60;74.42;99660.43;108256;1274;61628;-73
2022/09/26 07:36:08;;;;;;;4.30;2.10;;;;;;;12.66;73.99;99660.15;108261;1276;74643;-73
2022/09/26 07:38:35;;;;;;;6.10;2.30;;;;;;;12.72;73.49;99657.98;108286;1271;71232;-73
2022/09/26 07:41:02;;;;;;;4.70;2.10;;;;;;;12.79;73.29;99652.33;108330;1274;73840;-73
2022/09/26 07:43:29;;;;;;;3.80;2.10;;;;;;;12.90;73.15;99647.39;108337;1274;63540;-73
2022/09/26 07:51:47;;;;;;;5.00;2.00;;;;;;;13.29;72.19;99643.75;108340;1273;71990;-73
2022/09/26 07:54:13;;;;;;;4.60;2.10;;;;;;;13.32;71.31;99637.23;108346;1274;74294;-73
2022/09/26 07:56:42;;;;;;;5.40;2.70;;;;;;;13.50;71.21;99636.18;108329;1274;61927;-73
2022/09/26 07:59:11;;;;;;;7.30;2.60;;;;;;;13.62;70.57;99636.50;108348;1274;61476;-73
2022/09/26 08:01:38;;;;;;;5.30;2.30;;;;;;;13.73;70.43;99629.14;108290;1273;74667;-73
2022/09/26 08:04:05;;;;;;;5.10;2.30;;;;;;;13.79;69.89;99631.05;108377;1274;71913;-73
2022/09/26 08:06:36;;;;;;;5.40;2.30;;;;;;;13.77;69.38;99631.23;108328;1274;73988;-73
2022/09/26 08:09:03;;;;;;;4.90;2.50;;;;;;;13.80;69.71;99625.32;108347;1273;63093;-73
2022/09/26 08:11:30;;;;;;;4.90;2.30;;;;;;;13.89;69.44;99623.58;108336;1274;60328;-73
2022/09/26 08:13:57;;;;;;;4.70;2.40;;;;;;;13.88;68.95;99623.02;108375;1273;73727;-73
2022/09/26 08:16:24;;;;;;;6.60;2.70;;;;;;;13.91;69.31;99623.92;108284;1274;69978;-73
2022/09/26 08:18:52;;;;;;;7.60;2.60;;;;;;;14.01;69.12;99626.44;108366;1273;74210;-73
2022/09/26 08:21:21;;;;;;;5.30;2.40;;;;;;;14.01;68.55;99631.70;108344;1274;63210;-73
2022/09/26 08:23:47;;;;;;;6.00;2.30;;;;;;;14.04;68.41;99622.14;108370;1274;61896;-73
2022/09/26 08:26:15;;;;;;;5.80;2.70;;;;;;;14.21;68.90;99623.02;108300;1273;73476;-73
2022/09/26 08:28:42;;;;;;;6.40;2.20;;;;;;;14.31;68.12;99618.63;108291;1274;71197;-73
2022/09/26 08:31:10;;;;;;;4.90;2.40;;;;;;;14.45;68.04;99619.56;108280;1274;72872;-73
2022/09/26 08:33:37;;;;;;;4.10;2.40;;;;;;;14.47;67.36;99620.02;108349;1274;62559;-73
2022/09/26 08:36:12;;;;;;;4.10;2.80;;;;;;;14.59;67.16;99610.48;108298;1274;60679;-73
2022/09/26 08:38:39;;;;;;;5.80;2.10;;;;;;;14.67;66.64;99610.04;108257;1276;73727;-73
2022/09/26 08:41:32;;;;;;;5.10;2.30;;;;;;;14.76;67.03;99603.57;108362;1274;72614;-73
2022/09/26 08:44:28;;;;;;;6.40;2.70;;;;;;;14.85;66.68;99597.72;108233;1274;74172;-74
2022/09/26 08:47:01;;;;;;;5.10;2.50;;;;;;;14.92;65.79;99601.80;108319;1274;62550;-73
2022/09/26 08:49:41;;;;;;;4.50;2.50;;;;;;;14.96;64.99;99603.10;108328;1274;60626;-73
2022/09/26 08:52:35;;;;;;;6.80;2.40;;;;;;;15.03;65.48;99600.05;108270;1274;73758;-73
2022/09/26 08:55:11;;;;;;;4.30;2.30;;;;;;;15.12;64.24;99598.40;108331;1274;72124;-73
2022/09/26 08:57:44;;;;;;;5.30;2.30;;;;;;;15.12;63.97;99594.87;108350;1274;72830;-73
2022/09/26 09:00:17;;;;;;;4.70;2.20;;;;;;;15.11;63.76;99593.27;108337;1274;64121;-74
2022/09/26 09:02:47;;;;;;;4.70;2.30;;;;;;;15.09;63.59;99586.68;108288;1273;61324;-73
2022/09/26 09:05:23;;;;;;;7.70;2.40;;;;;;;15.14;64.14;99582.95;108375;1274;75585;-73
2022/09/26 09:07:55;;;;;;;4.90;2.00;;;;;;;15.19;64.09;99580.39;108327;1274;71363;-73
2022/09/26 09:10:38;;;;;;;3.80;1.90;;;;;;;15.21;63.95;99576.61;108297;1274;72653;-74
2022/09/26 09:13:14;;;;;;;3.10;1.70;;;;;;;15.32;63.79;99575.60;108356;1274;63200;-73
2022/09/26 09:15:59;;;;;;;3.60;2.30;;;;;;;15.32;62.97;99572.63;108308;1274;61350;-74
2022/09/26 09:18:38;;;;;;;5.30;2.00;;;;;;;15.44;63.05;99567.11;108372;1274;76320;-73
2022/09/26 09:21:23;;;;;;;5.80;2.20;;;;;;;15.54;62.44;99572.14;108222;1274;72174;-73
2022/09/26 09:24:11;;;;;;;5.10;2.10;;;;;;;15.52;61.54;99569.80;108289;1274;72807;-73
2022/09/26 09:26:53;;;;;;;5.30;2.10;;;;;;;15.53;62.23;99565.75;108264;1274;61462;-73
2022/09/26 09:29:58;;;;;;;4.20;1.60;;;;;;;15.47;61.70;99563.39;108315;1274;59813;-73
2022/09/26 09:32:44;;;;;;;5.20;1.90;;;;;;;15.53;62.41;99555.48;108299;1274;73844;-73
2022/09/26 09:35:18;;;;;;;3.80;1.80;;;;;;;15.58;61.93;99554.04;108236;1274;71192;-73
2022/09/26 09:37:51;;;;;;;3.60;1.80;;;;;;;15.70;61.52;99549.19;108345;1273;73996;-73
2022/09/26 09:40:40;;;;;;;2.80;1.60;;;;;;;15.82;61.36;99542.27;108289;1274;62182;-73
2022/09/26 09:43:25;;;;;;;4.60;1.50;;;;;;;15.92;60.26;99539.08;108380;1274;61800;-74
2022/09/26 09:46:00;;;;;;;3.30;1.60;;;;;;;15.97;59.98;99538.69;108304;1274;74890;-73
2022/09/26 09:48:27;;;;;;;3.60;1.40;;;;;;;15.92;58.55;99539.50;108418;1274;71387;-73
2022/09/26 09:51:20;;;;;;;4.60;1.40;;;;;;;15.80;58.30;99539.29;108342;1274;74182;-74
2022/09/26 09:53:59;;;;;;;6.00;1.40;;;;;;;15.69;59.09;99532.89;108394;1274;60358;-73
2022/09/26 09:56:48;;;;;;;3.80;1.20;;;;;;;15.60;58.54;99541.48;108375;1273;60610;-74
2022/09/26 09:59:39;;;;;;;4.50;1.40;;;;;;;15.53;58.28;99531.34;108335;1274;75856;-73
2022/09/26 10:02:09;;;;;;;3.30;1.40;;;;;;;15.46;58.61;99535.36;108365;1274;72332;-73
2022/09/26 10:04:55;;;;;;;5.10;1.40;;;;;;;15.48;59.02;99532.41;108311;1274;72945;-73
2022/09/26 10:07:21;;;;;;;3.70;1.30;;;;;;;15.58;58.45;99525.06;108384;1273;59602;-73
2022/09/26 10:09:50;;;;;;;5.30;1.50;;;;;;;15.57;58.21;99526.91;108356;1274;60651;-73
2022/09/26 10:12:22;;;;;;;3.70;1.50;;;;;;;15.49;58.16;99524.51;108265;1275;73816;-73
2022/09/26 10:14:57;;;;;;;3.40;1.30;;;;;;;15.42;58.38;99516.30;108338;1274;71552;-73
2022/09/26 10:17:24;;;;;;;6.20;1.50;;;;;;;15.35;58.22;99515.70;108229;1274;73931;-73
2022/09/26 10:19:51;;;;;;;4.40;1.50;;;;;;;15.29;58.58;99512.51;108275;1274;61097;-73
2022/09/26 10:22:28;;;;;;;4.10;1.30;;;;;;;15.40;59.43;99507.27;108408;1273;60911;-73
2022/09/26 10:25:24;;;;;;;3.10;1.50;;;;;;;15.51;59.29;99501.14;108351;1274;75814;-73
2022/09/26 10:27:55;;;;;;;3.40;1.40;;;;;;;15.61;59.49;99498.88;108229;1274;71743;-73
2022/09/26 10:30:32;;;;;;;2.90;1.30;;;;;;;15.62;59.32;99496.75;108342;1274;73123;-74
2022/09/26 10:33:02;;;;;;;4.20;1.30;;;;;;;15.55;59.06;99495.77;108258;1274;60624;-73
2022/09/26 10:35:45;;;;;;;4.90;1.30;;;;;;;15.43;59.41;99493.38;108308;1274;60015;-73
2022/09/26 10:38:27;;;;;;;3.90;1.40;;;;;;;15.32;59.45;99497.33;108331;1274;75311;-74
2022/09/26 10:41:00;;;;;;;5.80;1.60;;;;;;;15.29;60.09;99497.91;108287;1276;72733;-74
2022/09/26 10:43:32;;;;;;;3.90;1.30;;;;;;;15.27;59.97;99497.60;108311;1274;72785;-73
2022/09/26 10:46:16;;;;;;;5.10;1.40;;;;;;;15.22;60.22;99499.54;108305;1274;60807;-73
2022/09/26 10:48:47;;;;;;;4.50;1.40;;;;;;;15.06;60.14;99492.77;108360;1274;59057;-73
2022/09/26 10:51:31;;;;;;;5.10;1.60;;;;;;;14.91;60.33;99489.34;108323;1273;74885;-74
2022/09/26 10:54:10;;;;;;;5.00;1.40;;;;;;;14.80;61.04;99486.10;108376;1274;69696;-73
2022/09/26 10:56:42;;;;;;;3.70;1.30;;;;;;;14.72;61.54;99484.41;108288;1274;73969;-73
2022/09/26 10:59:16;;;;;;;3.10;1.20;;;;;;;14.60;61.22;99485.23;108337;1274;60591;-73
2022/09/26 11:01:47;;;;;;;4.60;1.40;;;;;;;14.47;61.46;99481.30;108364;1274;60156;-73
2022/09/26 11:07:24;;;;;;;3.40;1.20;;;;;;;14.37;62.25;99477.16;108248;1276;72294;-73
2022/09/26 11:09:58;;;;;;;3.00;1.40;;;;;;;14.36;62.18;99478.40;108274;1274;73441;-74
2022/09/26 11:12:31;;;;;;;3.70;1.40;;;;;;;14.41;62.58;99473.25;108261;1274;60465;-74
2022/09/26 11:15:03;;;;;;;2.20;1.10;;;;;;;14.49;62.80;99463.41;108195;1274;60678;-73
2022/09/26 11:17:46;;;;;;;3.50;1.90;;;;;;;14.55;63.05;99460.75;108042;1277;75909;-73
2022/09/26 11:20:31;;;;;;;3.80;1.20;;;;;;;14.52;62.28;99457.94;108301;1274;71038;-74
2022/09/26 11:23:14;;;;;;;2.60;1.10;;;;;;;14.49;62.05;99451.71;108318;1274;73845;-74
2022/09/26 11:26:07;;;;;;;5.20;1.30;;;;;;;14.53;62.02;99451.01;108317;1273;61609;-74
2022/09/26 11:28:45;;;;;;;3.40;1.10;;;;;;;14.60;61.95;99448.83;108321;1273;60312;-73
2022/09/26 11:31:39;;;;;;;3.40;1.30;;;;;;;14.70;62.00;99446.58;108284;1273;76336;-73
2022/09/26 11:34:12;;;;;;;3.10;1.10;;;;;;;14.84;61.70;99439.58;108358;1274;71415;-73
2022/09/26 11:37:25;;;;;;;5.20;1.10;;;;;;;15.01;61.91;99434.14;108289;1274;72604;-73
2022/09/26 11:40:29;;;;;;;3.00;1.20;;;;;;;15.21;61.79;99429.23;108231;1274;63181;-73
2022/09/26 11:43:43;;;;;;;3.10;1.10;;;;;;;15.36;61.57;99425.52;108303;1273;60352;-73
2022/09/26 11:46:19;;;;;;;3.30;1.40;;;;;;;15.44;60.96;99424.45;108158;1274;73911;-74
2022/09/26 11:48:49;;;;;;;3.50;1.30;;;;;;;15.51;61.25;99422.94;108328;1274;72976;-73
2022/09/26 11:52:01;;;;;;;3.30;1.30;;;;;;;15.48;61.33;99418.72;108161;1274;76276;-73
2022/09/26 11:54:48;;;;;;;3.00;1.10;;;;;;;15.32;61.46;99416.80;108032;1273;368366;-74
2022/09/26 11:57:30;;;;;;;3.30;1.40;;;;;;;15.20;62.27;99413.08;108381;1274;60535;-73
2022/09/26 11:59:57;;;;;;;2.00;1.20;;;;;;;15.11;63.10;99408.14;108347;1273;74687;-73
2022/09/26 12:02:31;;;;;;;4.50;1.50;;;;;;;15.07;63.89;99406.62;108357;1274;60810;-73
2022/09/26 12:05:15;;;;;;;3.70;1.20;;;;;;;14.94;64.07;99401.83;108340;1274;73267;-74
2022/09/26 12:07:57;;;;;;;4.20;1.30;;;;;;;14.84;64.61;99404.72;108317;1273;62307;-73
2022/09/26 12:10:52;;;;;;;2.90;1.10;;;;;;;14.63;63.93;99407.99;108310;1274;59643;-74